createdAt,value
2023-12-08T00:02:15.145Z,30.00
2023-12-08T00:04:43.527Z,28.40
2023-12-08T00:07:11.932Z,32.40
2023-12-08T00:09:40.268Z,28.47
2023-12-08T00:12:09.347Z,29.10
2023-12-08T00:14:37.806Z,29.33
2023-12-08T00:17:07.972Z,28.63
2023-12-08T00:19:36.581Z,31.63
2023-12-08T00:22:05.632Z,32.80
2023-12-08T00:24:34.653Z,31.40
2023-12-08T00:27:03.145Z,31.80
2023-12-08T00:29:31.667Z,33.13
2023-12-08T00:32:00.115Z,31.57
2023-12-08T00:34:30.018Z,36.27
2023-12-08T00:36:58.821Z,31.75
2023-12-08T00:39:27.195Z,32.13
2023-12-08T00:41:55.693Z,31.43
2023-12-08T00:44:24.910Z,30.77
2023-12-08T00:46:54.094Z,31.43
2023-12-08T00:49:22.598Z,31.63
2023-12-08T00:51:52.373Z,36.83
2023-12-08T00:54:20.820Z,31.98
2023-12-08T00:56:49.506Z,32.87
2023-12-08T00:59:18.356Z,33.67
2023-12-08T01:01:46.812Z,33.83
2023-12-08T01:04:15.383Z,33.43
2023-12-08T01:06:43.860Z,34.33
2023-12-08T01:09:14.003Z,39.03
2023-12-08T01:11:42.772Z,34.42
2023-12-08T01:14:11.142Z,39.20
2023-12-08T01:16:42.430Z,38.53
2023-12-08T01:19:12.824Z,37.63
2023-12-08T01:21:41.846Z,36.78
2023-12-08T01:24:10.373Z,38.73
2023-12-08T01:26:45.118Z,41.30
2023-12-08T01:29:13.528Z,38.57
2023-12-08T01:31:42.048Z,45.07
2023-12-08T01:34:10.515Z,41.97
2023-12-08T01:36:43.120Z,48.57
2023-12-08T01:39:13.905Z,41.23
2023-12-08T01:41:44.277Z,49.30
2023-12-08T01:44:12.691Z,40.28
2023-12-08T01:46:41.094Z,44.93
2023-12-08T01:49:09.574Z,46.53
2023-12-08T01:51:38.089Z,50.33
2023-12-08T01:54:07.583Z,49.73
2023-12-08T01:56:37.083Z,45.60
2023-12-08T01:59:07.420Z,49.20
2023-12-08T02:01:35.899Z,50.45
2023-12-08T02:04:06.421Z,50.17
2023-12-08T02:06:35.630Z,54.10
2023-12-08T02:09:04.366Z,50.73
2023-12-08T02:11:32.897Z,51.23
2023-12-08T02:14:01.299Z,53.63
2023-12-08T02:16:41.435Z,50.40
2023-12-08T02:19:10.630Z,54.88
2023-12-08T02:21:39.327Z,53.07
2023-12-08T02:24:09.475Z,51.10
2023-12-08T02:26:38.109Z,49.22
2023-12-08T02:29:09.893Z,47.33
2023-12-08T02:31:42.692Z,47.17
2023-12-08T02:34:12.473Z,42.40
2023-12-08T02:36:41.405Z,43.90
2023-12-08T02:39:13.241Z,44.23
2023-12-08T02:41:43.712Z,41.10
2023-12-08T02:46:41.781Z,44.20
2023-12-08T02:49:10.233Z,44.58
2023-12-08T02:51:38.644Z,41.50
2023-12-08T02:54:07.119Z,42.93
2023-12-08T02:56:36.822Z,43.10
2023-12-08T02:59:05.198Z,46.15
2023-12-08T03:01:33.728Z,42.90
2023-12-08T03:04:02.769Z,46.63
2023-12-08T03:06:31.382Z,45.40
2023-12-08T03:08:59.743Z,43.17
2023-12-08T03:11:28.147Z,47.27
2023-12-08T03:13:57.857Z,49.90
2023-12-08T03:16:26.262Z,45.42
2023-12-08T03:18:54.676Z,48.33
2023-12-08T03:21:24.014Z,43.60
2023-12-08T03:23:53.016Z,43.97
2023-12-08T03:26:21.821Z,44.90
2023-12-08T03:28:50.163Z,46.93
2023-12-08T03:31:28.573Z,42.60
2023-12-08T03:33:57.185Z,44.80
2023-12-08T03:36:25.891Z,42.20
2023-12-08T03:38:54.288Z,43.97
2023-12-08T03:41:23.310Z,43.80
2023-12-08T03:43:51.668Z,40.63
2023-12-08T03:46:20.005Z,40.27
2023-12-08T03:48:51.867Z,43.13
2023-12-08T03:51:21.879Z,43.53
2023-12-08T03:53:50.234Z,42.13
2023-12-08T03:56:18.588Z,40.43
2023-12-08T03:58:46.938Z,41.33
2023-12-08T04:01:18.886Z,38.90
2023-12-08T04:03:47.392Z,44.67
2023-12-08T04:06:17.355Z,41.27
2023-12-08T04:08:45.785Z,42.17
2023-12-08T04:11:14.165Z,43.53
2023-12-08T04:13:42.455Z,38.60
2023-12-08T04:16:11.593Z,38.27
2023-12-08T04:18:40.098Z,39.80
2023-12-08T04:21:08.835Z,37.53
2023-12-08T04:23:39.116Z,37.20
2023-12-08T04:26:09.313Z,37.80
2023-12-08T04:28:37.966Z,42.97
2023-12-08T04:31:06.824Z,40.53
2023-12-08T04:33:35.555Z,37.40
2023-12-08T04:36:04.381Z,40.17
2023-12-08T04:38:32.859Z,39.87
2023-12-08T04:41:02.570Z,38.53
2023-12-08T04:43:30.901Z,40.75
2023-12-08T04:45:59.371Z,39.83
2023-12-08T04:48:28.108Z,37.30
2023-12-08T04:50:57.095Z,39.67
2023-12-08T04:53:25.463Z,35.60
2023-12-08T04:55:53.896Z,40.20
2023-12-08T04:58:24.351Z,40.83
2023-12-08T05:00:52.991Z,42.10
2023-12-08T05:03:21.471Z,38.23
2023-12-08T05:05:50.071Z,39.63
2023-12-08T05:08:18.517Z,40.27
2023-12-08T05:10:46.885Z,37.70
2023-12-08T05:13:15.282Z,41.07
2023-12-08T05:15:45.025Z,39.90
2023-12-08T05:18:13.544Z,38.55
2023-12-08T05:20:42.042Z,39.27
2023-12-08T05:23:10.360Z,40.50
2023-12-08T05:25:38.656Z,38.13
2023-12-08T05:28:07.365Z,40.77
2023-12-08T05:30:35.629Z,42.17
2023-12-08T05:33:05.768Z,44.47
2023-12-08T05:35:34.329Z,42.40
2023-12-08T05:38:02.835Z,42.53
2023-12-08T05:40:31.444Z,44.50
2023-12-08T05:43:00.249Z,42.23
2023-12-08T05:45:28.595Z,45.93
2023-12-08T05:47:57.186Z,43.50
2023-12-08T05:50:26.990Z,46.97
2023-12-08T05:52:55.334Z,41.03
2023-12-08T05:55:23.662Z,42.30
2023-12-08T05:57:52.145Z,42.93
2023-12-08T06:00:21.690Z,44.13
2023-12-08T06:02:50.254Z,47.27
2023-12-08T06:05:19.673Z,40.90
2023-12-08T06:07:49.617Z,41.80
2023-12-08T06:10:18.444Z,43.30
2023-12-08T06:12:46.751Z,43.87
2023-12-08T06:15:15.113Z,39.80
2023-12-08T06:17:44.033Z,43.20
2023-12-08T06:20:13.898Z,44.10
2023-12-08T06:22:43.711Z,46.78
2023-12-08T06:25:13.481Z,41.17
2023-12-08T06:27:41.858Z,43.67
2023-12-08T06:30:12.311Z,46.63
2023-12-08T06:35:09.745Z,48.87
2023-12-08T06:37:38.094Z,47.90
2023-12-08T06:40:08.879Z,48.88
2023-12-08T06:42:38.611Z,49.30
2023-12-08T06:45:09.900Z,54.28
2023-12-08T06:47:38.673Z,55.45
2023-12-08T06:50:08.580Z,59.17
2023-12-08T06:52:36.933Z,57.60
2023-12-08T06:55:06.100Z,61.63
2023-12-08T06:57:34.731Z,53.30
2023-12-08T07:00:11.402Z,53.90
2023-12-08T07:02:40.171Z,69.53
2023-12-08T07:05:09.808Z,50.85
2023-12-08T07:07:39.259Z,62.13
2023-12-08T07:10:09.312Z,66.53
2023-12-08T07:12:38.031Z,67.00
2023-12-08T07:15:09.638Z,64.63
2023-12-08T07:17:38.803Z,71.90
2023-12-08T07:20:10.376Z,73.60
2023-12-08T07:22:39.160Z,67.22
2023-12-08T07:25:11.071Z,73.00
2023-12-08T07:27:39.438Z,81.70
2023-12-08T07:30:11.337Z,73.18
2023-12-08T07:32:39.791Z,78.95
2023-12-08T07:35:10.103Z,81.07
2023-12-08T07:37:42.171Z,76.88
2023-12-08T07:40:12.546Z,80.22
2023-12-08T07:42:40.974Z,85.95
2023-12-08T07:45:12.103Z,86.63
2023-12-08T07:47:40.690Z,88.15
2023-12-08T07:50:10.280Z,89.88
2023-12-08T07:52:39.627Z,90.38
2023-12-08T07:55:09.272Z,90.85
2023-12-08T07:57:37.663Z,98.80
2023-12-08T08:00:09.603Z,89.40
2023-12-08T08:02:39.519Z,100.05
2023-12-08T08:05:08.314Z,97.07
2023-12-08T08:07:36.652Z,95.47
2023-12-08T08:10:05.696Z,98.95
2023-12-08T08:12:34.780Z,87.75
2023-12-08T08:15:03.719Z,89.85
2023-12-08T08:17:32.580Z,88.13
2023-12-08T08:20:02.459Z,84.47
2023-12-08T08:22:32.950Z,96.82
2023-12-08T08:25:02.700Z,102.13
2023-12-08T08:27:33.155Z,102.00
2023-12-08T08:30:01.792Z,92.57
2023-12-08T08:32:30.382Z,105.13
2023-12-08T08:34:59.836Z,98.07
2023-12-08T08:37:30.504Z,95.17
2023-12-08T08:39:59.285Z,105.72
2023-12-08T08:42:28.211Z,105.25
2023-12-08T08:44:56.747Z,89.07
2023-12-08T08:47:25.606Z,90.95
2023-12-08T08:49:54.352Z,93.55
2023-12-08T08:52:22.764Z,99.80
2023-12-08T08:54:52.478Z,90.53
2023-12-08T08:57:20.889Z,92.45
2023-12-08T08:59:49.248Z,97.47
2023-12-08T09:02:17.597Z,100.35
2023-12-08T09:04:46.093Z,104.18
2023-12-08T09:07:14.616Z,96.70
2023-12-08T09:09:44.818Z,95.90
2023-12-08T09:12:14.852Z,90.25
2023-12-08T09:14:43.252Z,91.65
2023-12-08T09:17:11.663Z,89.78
2023-12-08T09:19:40.244Z,97.93
2023-12-08T09:22:08.694Z,102.63
2023-12-08T09:24:37.011Z,100.47
2023-12-08T09:27:06.081Z,95.13
2023-12-08T09:29:36.795Z,101.50
2023-12-08T09:32:06.032Z,97.28
2023-12-08T09:34:34.805Z,96.47
2023-12-08T09:37:26.148Z,95.20
2023-12-08T09:39:52.078Z,99.57
2023-12-08T09:42:33.743Z,102.60
2023-12-08T09:45:05.719Z,113.75
2023-12-08T09:47:36.902Z,100.45
2023-12-08T09:50:08.394Z,94.50
2023-12-08T09:52:37.584Z,104.55
2023-12-08T09:55:07.668Z,103.35
2023-12-08T09:57:36.929Z,116.85
2023-12-08T10:00:12.803Z,94.72
2023-12-08T10:02:42.478Z,103.97
2023-12-08T10:05:12.931Z,93.47
2023-12-08T10:10:12.284Z,98.03
2023-12-08T10:12:42.309Z,92.45
2023-12-08T10:15:14.026Z,95.63
2023-12-08T10:17:51.151Z,78.95
2023-12-08T10:20:21.891Z,93.65
2023-12-08T10:22:52.837Z,97.90
2023-12-08T10:25:22.920Z,87.97
2023-12-08T10:27:52.915Z,91.18
2023-12-08T10:30:25.058Z,96.82
2023-12-08T10:32:54.783Z,84.85
2023-12-08T10:35:24.603Z,98.15
2023-12-08T10:37:53.032Z,98.00
2023-12-08T10:40:21.401Z,92.18
2023-12-08T10:42:50.322Z,97.45
2023-12-08T10:45:19.900Z,109.70
2023-12-08T10:47:51.874Z,96.95
2023-12-08T10:50:22.907Z,102.88
2023-12-08T10:55:22.695Z,98.57
2023-12-08T10:57:55.672Z,85.90
2023-12-08T11:00:27.528Z,80.30
2023-12-08T11:02:58.653Z,85.78
2023-12-08T11:05:32.871Z,86.70
2023-12-08T11:08:05.114Z,70.60
2023-12-08T11:10:38.918Z,92.22
2023-12-08T11:13:11.355Z,97.97
2023-12-08T11:15:43.605Z,73.60
2023-12-08T11:18:26.021Z,79.43
2023-12-08T11:20:55.094Z,69.63
2023-12-08T11:23:24.141Z,73.50
2023-12-08T11:26:14.260Z,69.82
2023-12-08T11:28:59.074Z,74.03
2023-12-08T11:31:37.619Z,63.17
2023-12-08T11:34:19.262Z,89.45
2023-12-08T11:36:48.108Z,71.05
2023-12-08T11:39:44.751Z,66.88
2023-12-08T11:42:15.047Z,71.18
2023-12-08T11:44:45.651Z,83.50
2023-12-08T11:49:48.352Z,75.32
2023-12-08T11:52:19.689Z,72.63
2023-12-08T11:55:13.628Z,67.80
2023-12-08T11:58:07.059Z,83.15
2023-12-08T12:00:37.677Z,68.82
2023-12-08T12:05:39.679Z,68.38
2023-12-08T12:08:09.602Z,77.35
2023-12-08T12:10:40.511Z,84.00
2023-12-08T12:13:13.930Z,82.80
2023-12-08T12:15:44.051Z,89.72
2023-12-08T12:18:14.739Z,101.80
2023-12-08T12:20:46.458Z,106.47
2023-12-08T12:23:17.405Z,92.40
2023-12-08T12:25:49.449Z,115.05
2023-12-08T12:28:19.362Z,105.50
2023-12-08T12:30:51.144Z,136.95
2023-12-08T12:33:19.835Z,112.80
2023-12-08T12:35:54.355Z,111.30
2023-12-08T12:38:27.119Z,122.22
2023-12-08T12:40:56.719Z,139.68
2023-12-08T12:43:25.506Z,139.45
2023-12-08T12:45:53.971Z,136.93
2023-12-08T12:48:26.922Z,137.35
2023-12-08T12:50:56.922Z,134.02
2023-12-08T12:53:26.180Z,156.32
2023-12-08T12:56:07.088Z,139.23
2023-12-08T12:58:35.387Z,127.63
2023-12-08T13:01:12.857Z,138.15
2023-12-08T13:03:47.600Z,129.45
2023-12-08T13:06:29.036Z,109.20
2023-12-08T13:08:57.765Z,108.97
2023-12-08T13:11:27.766Z,114.45
2023-12-08T13:13:57.603Z,110.82
2023-12-08T13:16:26.370Z,112.18
2023-12-08T13:18:56.110Z,110.15
2023-12-08T13:21:26.421Z,107.88
2023-12-08T13:23:54.911Z,106.63
2023-12-08T13:26:23.294Z,114.40
2023-12-08T13:28:52.190Z,105.03
2023-12-08T13:31:20.586Z,109.15
2023-12-08T13:33:49.023Z,102.93
2023-12-08T13:36:17.654Z,109.03
2023-12-08T13:38:47.898Z,107.28
2023-12-08T13:41:16.308Z,96.60
2023-12-08T13:43:44.761Z,99.20
2023-12-08T13:46:13.072Z,108.05
2023-12-08T13:48:41.642Z,103.57
2023-12-08T13:51:28.440Z,106.32
2023-12-08T13:54:00.193Z,99.50
2023-12-08T13:56:28.623Z,93.80
2023-12-08T13:58:56.901Z,94.93
2023-12-08T14:01:25.307Z,95.25
2023-12-08T14:03:53.880Z,84.30
2023-12-08T14:06:22.408Z,83.40
2023-12-08T14:08:53.195Z,80.88
2023-12-08T14:11:22.998Z,90.43
2023-12-08T14:13:51.417Z,89.03
2023-12-08T14:16:19.958Z,85.80
2023-12-08T14:18:48.492Z,72.85
2023-12-08T14:21:17.008Z,78.30
2023-12-08T14:23:45.505Z,80.38
2023-12-08T14:26:14.142Z,79.07
2023-12-08T14:28:44.044Z,78.25
2023-12-08T14:31:12.427Z,71.85
2023-12-08T14:33:41.441Z,78.72
2023-12-08T14:36:10.700Z,86.80
2023-12-08T14:38:39.975Z,76.82
2023-12-08T14:41:09.708Z,84.18
2023-12-08T14:43:38.156Z,76.55
2023-12-08T14:46:08.022Z,75.80
2023-12-08T14:48:36.628Z,77.28
2023-12-08T14:51:07.245Z,76.38
2023-12-08T14:53:35.805Z,72.85
2023-12-08T14:56:04.365Z,72.57
2023-12-08T14:58:32.737Z,73.05
2023-12-08T15:01:01.033Z,81.60
2023-12-08T15:03:30.865Z,75.32
2023-12-08T15:06:00.670Z,62.58
2023-12-08T15:08:29.191Z,70.78
2023-12-08T15:10:57.533Z,77.22
2023-12-08T15:13:26.100Z,57.35
2023-12-08T15:15:54.560Z,69.65
2023-12-08T15:18:23.129Z,65.43
2023-12-08T15:20:55.725Z,64.63
2023-12-08T15:23:25.128Z,69.03
2023-12-08T15:25:55.059Z,61.35
2023-12-08T15:28:23.511Z,65.18
2023-12-08T15:30:52.263Z,58.45
2023-12-08T15:33:20.915Z,69.60
2023-12-08T15:35:49.803Z,70.03
2023-12-08T15:38:19.980Z,56.25
2023-12-08T15:40:48.391Z,58.75
2023-12-08T15:43:16.946Z,58.95
2023-12-08T15:45:45.531Z,61.67
2023-12-08T15:48:14.141Z,59.35
2023-12-08T15:50:42.665Z,64.93
2023-12-08T15:53:11.160Z,55.67
2023-12-08T15:55:41.132Z,55.25
2023-12-08T15:58:09.513Z,62.17
2023-12-08T16:00:38.633Z,51.17
2023-12-08T16:03:07.919Z,59.10
2023-12-08T16:05:36.369Z,59.05
2023-12-08T16:08:04.865Z,54.00
2023-12-08T16:10:33.210Z,57.03
2023-12-08T16:13:02.895Z,54.83
2023-12-08T16:15:31.364Z,57.00
2023-12-08T16:17:59.975Z,53.03
2023-12-08T16:20:28.431Z,57.42
2023-12-08T16:22:56.736Z,48.10
2023-12-08T16:25:25.399Z,49.35
2023-12-08T16:27:53.782Z,56.97
2023-12-08T16:30:23.554Z,51.70
2023-12-08T16:32:51.975Z,49.05
2023-12-08T16:35:20.305Z,56.05
2023-12-08T16:37:48.606Z,52.20
2023-12-08T16:40:16.945Z,51.88
2023-12-08T16:42:45.315Z,60.80
2023-12-08T16:45:13.809Z,53.65
2023-12-08T16:47:44.421Z,59.83
2023-12-08T16:50:14.267Z,61.50
2023-12-08T16:52:42.711Z,56.92
2023-12-08T16:55:11.316Z,50.20
2023-12-08T16:57:40.555Z,51.30
2023-12-08T17:00:10.479Z,60.67
2023-12-08T17:02:38.999Z,50.97
2023-12-08T17:05:10.276Z,58.80
2023-12-08T17:07:38.644Z,45.95
2023-12-08T17:10:08.866Z,50.00
2023-12-08T17:12:37.280Z,46.67
2023-12-08T17:15:06.784Z,55.35
2023-12-08T17:17:35.188Z,49.45
2023-12-08T17:20:03.826Z,56.60
2023-12-08T17:22:33.974Z,46.03
2023-12-08T17:25:03.788Z,59.90
2023-12-08T17:27:32.524Z,58.50
2023-12-08T17:30:01.091Z,54.05
2023-12-08T17:32:29.646Z,57.47
2023-12-08T17:34:58.492Z,51.40
2023-12-08T17:37:28.135Z,52.15
2023-12-08T17:39:58.082Z,52.50
2023-12-08T17:42:26.780Z,54.03
2023-12-08T17:44:55.333Z,56.42
2023-12-08T17:47:23.734Z,49.45
2023-12-08T17:49:52.277Z,60.35
2023-12-08T17:52:22.929Z,48.75
2023-12-08T17:57:22.836Z,58.15
2023-12-08T17:59:51.214Z,52.63
2023-12-08T18:02:19.564Z,56.80
2023-12-08T18:04:47.925Z,53.40
2023-12-08T18:07:16.328Z,61.03
2023-12-08T18:09:44.717Z,59.08
2023-12-08T18:12:13.133Z,51.95
2023-12-08T18:14:42.860Z,56.30
2023-12-08T18:17:11.351Z,58.83
2023-12-08T18:19:41.296Z,59.65
2023-12-08T18:22:09.768Z,50.75
2023-12-08T18:24:38.270Z,59.03
2023-12-08T18:27:06.972Z,56.78
2023-12-08T18:29:35.452Z,51.08
2023-12-08T18:32:05.712Z,52.00
2023-12-08T18:34:37.649Z,56.10
2023-12-08T18:37:06.502Z,52.13
2023-12-08T18:39:34.821Z,45.00
2023-12-08T18:42:03.329Z,49.58
2023-12-08T18:44:31.722Z,47.05
2023-12-08T18:47:00.121Z,60.60
2023-12-08T18:49:29.871Z,47.30
2023-12-08T18:51:58.315Z,55.35
2023-12-08T18:54:27.583Z,58.90
2023-12-08T18:56:56.047Z,54.95
2023-12-08T18:59:24.402Z,52.28
2023-12-08T19:01:52.973Z,55.58
2023-12-08T19:04:21.373Z,53.22
2023-12-08T19:06:51.113Z,56.60
2023-12-08T19:09:19.591Z,50.00
2023-12-08T19:11:48.114Z,50.30
2023-12-08T19:14:16.539Z,55.17
2023-12-08T19:16:44.892Z,55.25
2023-12-08T19:19:14.175Z,52.90
2023-12-08T19:21:42.902Z,56.22
2023-12-08T19:24:12.653Z,57.30
2023-12-08T19:26:40.997Z,55.87
2023-12-08T19:29:09.388Z,56.20
2023-12-08T19:31:37.856Z,52.88
2023-12-08T19:34:06.767Z,53.35
2023-12-08T19:36:35.515Z,64.80
2023-12-08T19:39:08.135Z,50.63
2023-12-08T19:41:38.055Z,46.53
2023-12-08T19:44:08.102Z,57.03
2023-12-08T19:46:39.373Z,52.75
2023-12-08T19:49:07.947Z,50.42
2023-12-08T19:51:36.345Z,58.40
2023-12-08T19:54:06.361Z,53.85
2023-12-08T19:56:34.719Z,58.30
2023-12-08T19:59:05.242Z,50.38
2023-12-08T20:01:33.595Z,50.15
2023-12-08T20:04:01.984Z,54.92
2023-12-08T20:06:32.228Z,50.80
2023-12-08T20:09:00.791Z,60.25
2023-12-08T20:11:29.187Z,53.05
2023-12-08T20:13:57.802Z,50.30
2023-12-08T20:16:27.623Z,49.00
2023-12-08T20:18:56.528Z,48.50
2023-12-08T20:21:24.970Z,52.95
2023-12-08T20:23:53.660Z,52.17
2023-12-08T20:26:22.024Z,52.38
2023-12-08T20:28:51.707Z,62.28
2023-12-08T20:31:21.758Z,54.70
2023-12-08T20:33:53.059Z,49.20
2023-12-08T20:36:23.947Z,51.88
2023-12-08T20:38:54.427Z,53.22
2023-12-08T20:41:23.197Z,60.17
2023-12-08T20:43:51.678Z,56.83
2023-12-08T20:46:20.132Z,54.30
2023-12-08T20:48:50.057Z,47.38
2023-12-08T20:51:18.593Z,50.40
2023-12-08T20:53:47.556Z,55.97
2023-12-08T20:56:17.869Z,49.38
2023-12-08T20:58:46.387Z,59.10
2023-12-08T21:01:15.166Z,58.75
2023-12-08T21:03:43.614Z,59.33
2023-12-08T21:06:13.512Z,59.53
2023-12-08T21:08:41.964Z,54.08
2023-12-08T21:11:10.341Z,55.08
2023-12-08T21:13:39.130Z,49.88
2023-12-08T21:16:08.481Z,57.47
2023-12-08T21:18:37.023Z,55.08
2023-12-08T21:21:06.095Z,51.88
2023-12-08T21:23:35.889Z,51.88
2023-12-08T21:26:05.005Z,59.65
2023-12-08T21:28:33.795Z,55.47
2023-12-08T21:31:02.192Z,54.90
2023-12-08T21:33:30.736Z,45.13
2023-12-08T21:35:59.233Z,51.85
2023-12-08T21:38:27.883Z,43.72
2023-12-08T21:40:57.938Z,46.42
2023-12-08T21:43:26.289Z,46.22
2023-12-08T21:45:54.714Z,48.75
2023-12-08T21:48:23.180Z,51.13
2023-12-08T21:50:51.653Z,42.42
2023-12-08T21:53:20.003Z,51.17
2023-12-08T21:55:48.433Z,56.47
2023-12-08T21:58:18.515Z,42.63
2023-12-08T22:00:47.440Z,54.97
2023-12-08T22:03:16.059Z,53.05
2023-12-08T22:05:44.443Z,50.35
2023-12-08T22:08:13.402Z,41.92
2023-12-08T22:10:43.025Z,47.22
2023-12-08T22:13:12.520Z,47.88
2023-12-08T22:15:42.382Z,49.83
2023-12-08T22:18:10.921Z,44.92
2023-12-08T22:20:39.333Z,52.13
2023-12-08T22:23:07.801Z,46.40
2023-12-08T22:25:38.062Z,45.83
2023-12-08T22:28:06.782Z,46.75
2023-12-08T22:30:35.207Z,46.38
2023-12-08T22:33:05.119Z,40.40
2023-12-08T22:35:33.558Z,45.35
2023-12-08T22:38:01.994Z,54.15
2023-12-08T22:40:30.316Z,50.22
2023-12-08T22:42:58.833Z,46.80
2023-12-08T22:45:27.160Z,44.67
2023-12-08T22:47:55.562Z,42.95
2023-12-08T22:50:32.143Z,45.30
2023-12-08T22:53:04.473Z,41.63
2023-12-08T22:55:33.133Z,48.78
2023-12-08T22:58:01.731Z,50.88
2023-12-08T23:00:30.191Z,48.00
2023-12-08T23:02:58.931Z,50.20
2023-12-08T23:05:28.758Z,39.60
2023-12-08T23:07:57.118Z,49.47
2023-12-08T23:10:25.872Z,50.45
2023-12-08T23:12:54.322Z,41.67
2023-12-08T23:15:23.361Z,47.20
2023-12-08T23:17:54.117Z,47.90
2023-12-08T23:22:52.374Z,39.65
2023-12-08T23:25:20.819Z,38.35
2023-12-08T23:27:49.156Z,42.50
2023-12-08T23:30:17.679Z,44.25
2023-12-08T23:32:46.079Z,45.22
2023-12-08T23:35:14.547Z,39.47
2023-12-08T23:37:43.128Z,37.75
2023-12-08T23:40:13.824Z,39.90
2023-12-08T23:42:42.454Z,42.00
2023-12-08T23:45:13.707Z,47.35
2023-12-08T23:47:42.768Z,37.70
2023-12-08T23:50:11.688Z,46.85
2023-12-08T23:52:40.032Z,43.40
2023-12-08T23:55:09.014Z,48.17
2023-12-08T23:57:38.713Z,44.63
